createdAt,value
2017-03-14T00:07:20.382Z,1022.97
2017-03-14T00:17:20.345Z,1022.9
2017-03-14T00:27:20.397Z,1023.02
2017-03-14T00:37:20.347Z,1022.97
2017-03-14T00:47:20.431Z,1023.1
2017-03-14T00:57:20.393Z,1023.04
2017-03-14T01:07:20.348Z,1023.02
2017-03-14T01:17:20.420Z,1023.08
2017-03-14T01:27:20.367Z,1023.17
2017-03-14T01:37:20.439Z,1023.09
2017-03-14T01:47:20.384Z,1023.08
2017-03-14T01:57:20.459Z,1022.95
2017-03-14T02:07:20.421Z,1023.15
2017-03-14T02:17:20.479Z,1023.32
2017-03-14T02:27:20.442Z,1023.33
2017-03-14T02:37:20.507Z,1023.42
2017-03-14T02:47:20.458Z,1023.36
2017-03-14T02:57:20.532Z,1023.4
2017-03-14T03:07:20.489Z,1023.36
2017-03-14T03:17:20.451Z,1023.38
2017-03-14T03:27:20.508Z,1023.26
2017-03-14T03:37:20.469Z,1023.15
2017-03-14T03:47:20.528Z,1023.31
2017-03-14T03:57:20.486Z,1023.37
2017-03-14T04:07:20.564Z,1023.33
2017-03-14T04:17:20.525Z,1023.43
2017-03-14T04:27:20.578Z,1023.42
2017-03-14T04:37:20.534Z,1023.38
2017-03-14T04:47:20.604Z,1023.38
2017-03-14T04:57:20.564Z,1023.33
2017-03-14T05:07:20.521Z,1023.39
2017-03-14T05:17:20.596Z,1023.36
2017-03-14T05:27:20.562Z,1023.24
2017-03-14T05:37:20.615Z,1023.19
2017-03-14T05:47:20.565Z,1023.36
2017-03-14T05:57:20.627Z,1023.29
2017-03-14T06:07:20.593Z,1023.29
2017-03-14T06:17:20.663Z,1023.27
2017-03-14T06:27:20.618Z,1023.16
2017-03-14T06:37:20.679Z,1023.31
2017-03-14T06:47:20.640Z,1023.34
2017-03-14T06:57:20.704Z,1023.4
2017-03-14T07:07:20.664Z,1023.45
2017-03-14T07:17:20.623Z,1023.4
2017-03-14T07:27:20.709Z,1023.76
2017-03-14T07:37:20.658Z,1024
2017-03-14T07:47:20.748Z,1024.01
2017-03-14T07:57:20.673Z,1024
2017-03-14T08:07:20.731Z,1023.99
2017-03-14T08:17:20.698Z,1024.02
2017-03-14T08:27:20.761Z,1023.9
2017-03-14T08:37:20.726Z,1023.93
2017-03-14T08:47:20.781Z,1024.01
2017-03-14T08:57:20.746Z,1024.04
2017-03-14T09:07:20.829Z,1024.07
2017-03-14T09:17:20.778Z,1024.17
2017-03-14T09:27:20.839Z,1024
2017-03-14T09:37:20.795Z,1023.99
2017-03-14T09:47:20.851Z,1023.83
2017-03-14T09:57:20.817Z,1023.59
2017-03-14T10:07:20.804Z,1023.52
2017-03-14T10:17:20.841Z,1023.57
2017-03-14T10:27:20.799Z,1023.54
2017-03-14T10:37:20.873Z,1023.35
2017-03-14T10:47:20.838Z,1023.14
2017-03-14T10:57:20.892Z,1023.15
2017-03-14T11:07:20.852Z,1022.79
2017-03-14T11:17:20.912Z,1022.92
2017-03-14T11:27:20.864Z,1022.94
2017-03-14T11:37:20.939Z,1022.87
2017-03-14T11:47:20.895Z,1022.9
2017-03-14T11:57:20.952Z,1023.03
2017-03-14T12:07:20.941Z,1023.07
2017-03-14T12:17:20.977Z,1023.03
2017-03-14T12:27:20.883Z,1022.94
2017-03-14T12:37:20.898Z,1022.89
2017-03-14T12:47:20.905Z,1022.86
2017-03-14T12:57:20.914Z,1022.81
2017-03-14T13:07:20.927Z,1022.56
2017-03-14T13:17:20.941Z,1022.11
2017-03-14T13:27:20.953Z,1022.17
2017-03-14T13:37:20.961Z,1022.35
2017-03-14T13:47:20.976Z,1022.16
2017-03-14T13:57:20.983Z,1022.26
2017-03-14T14:07:20.996Z,1022.16
2017-03-14T14:17:21.006Z,1022.05
2017-03-14T14:27:21.013Z,1022.12
2017-03-14T14:37:21.036Z,1022.18
2017-03-14T14:47:21.054Z,1022.11
2017-03-14T14:57:21.055Z,1021.97
2017-03-14T15:07:21.066Z,1021.88
2017-03-14T15:17:21.055Z,1021.79
2017-03-14T15:27:21.087Z,1021.78
2017-03-14T15:37:21.128Z,1021.87
2017-03-14T15:47:21.190Z,1021.86
2017-03-14T15:57:21.158Z,1021.82
2017-03-14T16:07:21.210Z,1021.93
2017-03-14T16:17:21.170Z,1021.96
2017-03-14T16:27:21.287Z,1022.14
2017-03-14T16:37:21.192Z,1022.21
2017-03-14T16:47:21.257Z,1021.96
2017-03-14T16:57:21.229Z,1022.05
2017-03-14T17:07:21.179Z,1022.16
2017-03-14T17:17:21.248Z,1022.27
2017-03-14T17:27:21.213Z,1022.41
2017-03-14T17:37:21.272Z,1022.28
2017-03-14T17:47:21.226Z,1022.44
2017-03-14T17:57:21.304Z,1022.43
2017-03-14T18:07:21.269Z,1022.31
2017-03-14T18:17:21.316Z,1022.22
2017-03-14T18:27:21.284Z,1022.35
2017-03-14T18:37:21.343Z,1022.38
2017-03-14T18:47:21.315Z,1022.27
2017-03-14T18:57:21.295Z,1022.16
2017-03-14T19:07:21.281Z,1022.1
2017-03-14T19:17:21.290Z,1022.17
2017-03-14T19:27:21.320Z,1022.64
2017-03-14T19:37:21.350Z,1022.75
2017-03-14T19:47:21.310Z,1022.8
2017-03-14T19:57:21.371Z,1023.04
2017-03-14T20:07:21.413Z,1023.19
2017-03-14T20:17:21.354Z,1023.16
2017-03-14T20:27:21.433Z,1023.16
2017-03-14T20:37:21.355Z,1023.44
2017-03-14T20:47:21.369Z,1023.51
2017-03-14T20:57:21.379Z,1023.56
2017-03-14T21:07:21.386Z,1023.63
2017-03-14T21:17:21.446Z,1023.71
2017-03-14T21:27:21.401Z,1023.66
2017-03-14T21:37:21.444Z,1023.39
2017-03-14T21:47:21.430Z,1023.41
2017-03-14T21:57:22.193Z,1023.55
2017-03-14T22:07:21.552Z,1023.49
2017-03-14T22:17:21.520Z,1023.31
2017-03-14T22:27:21.477Z,1023.35
2017-03-14T22:37:21.533Z,1023.39
2017-03-14T22:47:21.516Z,1023.52
2017-03-14T22:57:21.559Z,1023.55
2017-03-14T23:07:21.575Z,1023.44
2017-03-14T23:17:21.587Z,1023.42
2017-03-14T23:27:21.540Z,1023.46
2017-03-14T23:37:21.651Z,1023.3
2017-03-14T23:47:21.567Z,1023.26
2017-03-14T23:57:21.628Z,1023.1
